Time;durP1;ratioP1;P1;durP2;ratioP2;P2;SDS_P1;SDS_P2;PMS_P1;PMS_P2;Temp;Humidity;BMP_temperature;BMP_pressure;BME280_temperature;BME280_humidity;BME280_pressure;Samples;Min_cycle;Max_cycle;Signal;HPM_P1;HPM_P2
2021/03/03 00:00:37;;;;;;;33.40;29.87;;;;;;;;;;4918352;29;20458;-63
2021/03/03 00:03:03;;;;;;;36.20;28.37;;;;;;;;;;4912132;29;20489;-63
2021/03/03 00:05:30;;;;;;;31.73;28.40;;;;;;;;;;4908989;29;20486;-64
2021/03/03 00:07:57;;;;;;;32.83;29.20;;;;;;;;;;4913236;29;20479;-64
2021/03/03 00:10:23;;;;;;;31.50;28.07;;;;;;;;;;4907944;29;20518;-64
2021/03/03 00:12:51;;;;;;;31.07;27.90;;;;;;;;;;4918235;29;20484;-63
2021/03/03 00:15:17;;;;;;;35.70;30.80;;;;;;;;;;4918075;29;20465;-64
2021/03/03 00:17:45;;;;;;;36.47;31.20;;;;;;;;;;4917935;29;20456;-63
2021/03/03 00:20:12;;;;;;;36.00;32.10;;;;;;;;;;4917591;29;21064;-64
2021/03/03 00:22:39;;;;;;;35.70;30.10;;;;;;;;;;4917705;29;20492;-64
2021/03/03 00:25:06;;;;;;;34.43;30.80;;;;;;;;;;4899475;29;20475;-64
2021/03/03 00:27:32;;;;;;;35.70;30.30;;;;;;;;;;4909194;29;20847;-63
2021/03/03 00:30:00;;;;;;;32.67;28.47;;;;;;;;;;4900014;29;20463;-65
2021/03/03 00:32:26;;;;;;;36.33;29.20;;;;;;;;;;4916949;29;20487;-63
2021/03/03 00:34:53;;;;;;;36.47;30.13;;;;;;;;;;4929027;29;20482;-65
2021/03/03 00:37:20;;;;;;;34.30;27.63;;;;;;;;;;4904655;29;20462;-63
2021/03/03 00:39:46;;;;;;;33.17;29.67;;;;;;;;;;4899283;29;20455;-64
2021/03/03 00:42:13;;;;;;;32.50;28.07;;;;;;;;;;4898970;29;20542;-63
2021/03/03 00:44:39;;;;;;;32.93;29.53;;;;;;;;;;4917892;29;20466;-64
2021/03/03 00:47:07;;;;;;;33.20;29.60;;;;;;;;;;4917621;29;20461;-63
2021/03/03 00:49:33;;;;;;;33.97;29.83;;;;;;;;;;4917645;29;20450;-64
2021/03/03 00:52:00;;;;;;;36.80;30.13;;;;;;;;;;4916533;29;20458;-64
2021/03/03 00:54:27;;;;;;;38.37;31.17;;;;;;;;;;4917445;29;20454;-63
2021/03/03 00:56:53;;;;;;;35.80;29.17;;;;;;;;;;4914686;29;20505;-63
2021/03/03 00:59:20;;;;;;;38.00;30.07;;;;;;;;;;4917428;29;20958;-64
2021/03/03 01:01:46;;;;;;;36.40;30.27;;;;;;;;;;4914838;29;20450;-63
2021/03/03 01:04:14;;;;;;;35.47;28.37;;;;;;;;;;4966366;23;20512;-65
2021/03/03 01:06:40;;;;;;;33.93;28.70;;;;;;;;;;4954766;28;20464;-64
2021/03/03 01:09:07;;;;;;;34.60;29.90;;;;;;;;;;4954678;29;20484;-65
2021/03/03 01:11:34;;;;;;;35.87;30.10;;;;;;;;;;4945779;29;20453;-65
2021/03/03 01:14:00;;;;;;;39.73;30.27;;;;;;;;;;4935876;29;20476;-63
2021/03/03 01:16:27;;;;;;;37.13;29.03;;;;;;;;;;4944995;28;20456;-65
2021/03/03 01:18:54;;;;;;;36.60;29.87;;;;;;;;;;4954835;29;20459;-65
2021/03/03 01:21:21;;;;;;;32.63;29.13;;;;;;;;;;4954873;29;20498;-63
2021/03/03 01:23:48;;;;;;;37.47;30.63;;;;;;;;;;4954701;29;21014;-65
2021/03/03 01:26:14;;;;;;;38.10;30.07;;;;;;;;;;4954309;29;20465;-64
2021/03/03 01:28:41;;;;;;;36.77;30.57;;;;;;;;;;4954414;29;20542;-64
2021/03/03 01:31:08;;;;;;;39.43;31.50;;;;;;;;;;4954176;28;20452;-64
2021/03/03 01:33:34;;;;;;;39.03;31.37;;;;;;;;;;4955463;28;20487;-65
2021/03/03 01:36:01;;;;;;;36.00;29.03;;;;;;;;;;4973061;28;20526;-64
2021/03/03 01:38:28;;;;;;;35.63;29.53;;;;;;;;;;4970981;28;20458;-64
2021/03/03 01:40:56;;;;;;;35.90;31.27;;;;;;;;;;4954314;29;20464;-64
2021/03/03 01:43:22;;;;;;;40.00;31.03;;;;;;;;;;4953959;29;20531;-64
2021/03/03 01:45:50;;;;;;;41.17;31.33;;;;;;;;;;4954835;28;20452;-64
2021/03/03 01:48:16;;;;;;;34.80;30.80;;;;;;;;;;4948800;28;20485;-64
2021/03/03 01:50:43;;;;;;;40.47;31.07;;;;;;;;;;4935049;29;20452;-63
2021/03/03 01:53:10;;;;;;;39.33;32.13;;;;;;;;;;4949781;29;20484;-64
2021/03/03 01:55:37;;;;;;;39.47;31.00;;;;;;;;;;4954017;29;20452;-64
2021/03/03 01:58:04;;;;;;;38.83;31.30;;;;;;;;;;4954170;29;20495;-64
2021/03/03 02:00:31;;;;;;;38.30;32.33;;;;;;;;;;4954446;29;20507;-64
2021/03/03 02:02:57;;;;;;;40.90;32.87;;;;;;;;;;4954066;28;21313;-63
2021/03/03 02:05:24;;;;;;;37.77;29.90;;;;;;;;;;4954096;29;20445;-64
2021/03/03 02:07:53;;;;;;;34.10;29.10;;;;;;;;;;4953559;29;20483;-64
2021/03/03 02:10:23;;;;;;;36.80;30.93;;;;;;;;;;4954162;29;20472;-64
2021/03/03 02:12:53;;;;;;;39.90;31.33;;;;;;;;;;4953284;29;20797;-64
2021/03/03 02:15:21;;;;;;;40.20;31.70;;;;;;;;;;4953414;28;20511;-64
2021/03/03 02:17:48;;;;;;;37.53;30.07;;;;;;;;;;4954782;28;20453;-64
2021/03/03 02:20:15;;;;;;;42.93;32.60;;;;;;;;;;4953780;29;20448;-64
2021/03/03 02:22:50;;;;;;;43.30;33.63;;;;;;;;;;4952708;29;20456;-64
2021/03/03 02:25:23;;;;;;;43.10;33.97;;;;;;;;;;4953824;29;20447;-64
2021/03/03 02:27:49;;;;;;;42.37;33.17;;;;;;;;;;4952764;29;21014;-64
2021/03/03 02:30:17;;;;;;;43.40;32.73;;;;;;;;;;4953643;29;20452;-64
2021/03/03 02:32:44;;;;;;;41.57;32.77;;;;;;;;;;4953165;28;20452;-65
2021/03/03 02:35:12;;;;;;;40.93;32.67;;;;;;;;;;4953952;29;20454;-64
2021/03/03 02:37:39;;;;;;;39.10;32.17;;;;;;;;;;4953379;29;20479;-64
2021/03/03 02:40:07;;;;;;;41.17;33.80;;;;;;;;;;4962091;28;20463;-65
2021/03/03 02:42:35;;;;;;;46.73;35.07;;;;;;;;;;4956778;28;20990;-64
2021/03/03 02:45:02;;;;;;;45.60;34.50;;;;;;;;;;4953334;29;20479;-64
2021/03/03 02:47:29;;;;;;;48.10;34.77;;;;;;;;;;4953298;28;20495;-64
2021/03/03 02:49:56;;;;;;;44.87;34.17;;;;;;;;;;4953444;29;20944;-65
2021/03/03 02:52:24;;;;;;;43.33;33.90;;;;;;;;;;4952301;29;20830;-64
2021/03/03 02:54:50;;;;;;;46.97;35.13;;;;;;;;;;4953641;28;20606;-65
2021/03/03 02:57:17;;;;;;;46.20;35.40;;;;;;;;;;4952600;28;20457;-64
2021/03/03 02:59:46;;;;;;;41.07;33.00;;;;;;;;;;4953242;29;20824;-64
2021/03/03 03:02:14;;;;;;;41.70;33.60;;;;;;;;;;4952909;28;20480;-63
2021/03/03 03:04:43;;;;;;;42.70;34.17;;;;;;;;;;4953114;29;21119;-65
2021/03/03 03:07:12;;;;;;;41.43;32.73;;;;;;;;;;4952704;29;20460;-64
2021/03/03 03:09:39;;;;;;;44.33;34.27;;;;;;;;;;4952891;29;20455;-65
2021/03/03 03:12:07;;;;;;;42.63;35.03;;;;;;;;;;4953050;29;20518;-64
2021/03/03 03:14:34;;;;;;;43.93;34.10;;;;;;;;;;4952772;29;20998;-64
2021/03/03 03:17:02;;;;;;;44.90;34.13;;;;;;;;;;4953470;28;20459;-65
2021/03/03 03:19:33;;;;;;;38.80;33.30;;;;;;;;;;4953256;29;20448;-65
2021/03/03 03:22:00;;;;;;;45.67;32.03;;;;;;;;;;4953063;29;20499;-64
2021/03/03 03:24:27;;;;;;;45.70;34.80;;;;;;;;;;4952936;29;20488;-65
2021/03/03 03:26:54;;;;;;;47.43;35.70;;;;;;;;;;4952720;29;20464;-64
2021/03/03 03:29:21;;;;;;;40.47;33.53;;;;;;;;;;4952993;29;20522;-64
2021/03/03 03:31:48;;;;;;;46.43;32.70;;;;;;;;;;4953256;28;21183;-65
2021/03/03 03:34:15;;;;;;;39.40;31.77;;;;;;;;;;4966973;28;20479;-64
2021/03/03 03:36:43;;;;;;;48.27;35.27;;;;;;;;;;4952355;28;20508;-64
2021/03/03 03:39:10;;;;;;;51.33;35.70;;;;;;;;;;4952802;29;20467;-64
2021/03/03 03:41:38;;;;;;;46.93;35.33;;;;;;;;;;4952629;28;20456;-65
2021/03/03 03:44:05;;;;;;;54.70;37.00;;;;;;;;;;4952472;29;21078;-64
2021/03/03 03:46:33;;;;;;;50.97;37.53;;;;;;;;;;4953693;28;20456;-64
2021/03/03 03:48:59;;;;;;;59.33;39.30;;;;;;;;;;4958083;28;20543;-65
2021/03/03 03:51:27;;;;;;;50.27;36.10;;;;;;;;;;4952656;29;20463;-64
2021/03/03 03:53:54;;;;;;;56.90;36.40;;;;;;;;;;4952349;29;20468;-64
2021/03/03 03:56:21;;;;;;;59.80;40.13;;;;;;;;;;4955162;28;20563;-65
2021/03/03 03:58:47;;;;;;;51.17;38.80;;;;;;;;;;4955676;29;20440;-65
2021/03/03 04:01:14;;;;;;;58.57;39.60;;;;;;;;;;4956715;29;20464;-65
2021/03/03 04:03:40;;;;;;;57.90;37.50;;;;;;;;;;4968997;28;20507;-65
2021/03/03 04:06:07;;;;;;;69.27;40.47;;;;;;;;;;4955149;29;20967;-64
2021/03/03 04:08:34;;;;;;;99.53;40.90;;;;;;;;;;4956122;28;20555;-64
2021/03/03 04:11:01;;;;;;;69.40;40.03;;;;;;;;;;4955534;29;20977;-64
2021/03/03 04:13:28;;;;;;;68.20;38.70;;;;;;;;;;4955880;28;20487;-65
2021/03/03 04:15:54;;;;;;;107.87;44.07;;;;;;;;;;4955361;29;20795;-65
2021/03/03 04:18:21;;;;;;;87.40;45.20;;;;;;;;;;4967457;28;20455;-65
2021/03/03 04:20:47;;;;;;;127.77;46.23;;;;;;;;;;4970320;28;20453;-65
2021/03/03 04:23:14;;;;;;;199.73;48.60;;;;;;;;;;4956069;29;20975;-65
2021/03/03 04:25:42;;;;;;;169.70;45.10;;;;;;;;;;4955423;29;20480;-65
2021/03/03 04:28:09;;;;;;;164.40;44.00;;;;;;;;;;4971859;28;20482;-63
2021/03/03 04:30:36;;;;;;;161.23;48.67;;;;;;;;;;4972640;28;20458;-63
2021/03/03 04:33:02;;;;;;;88.90;43.17;;;;;;;;;;4956198;28;20480;-62
2021/03/03 04:35:29;;;;;;;136.63;43.57;;;;;;;;;;4955160;29;20929;-64
2021/03/03 04:37:56;;;;;;;114.57;41.23;;;;;;;;;;4955474;29;20944;-63
2021/03/03 04:40:22;;;;;;;126.67;44.27;;;;;;;;;;4955862;29;20462;-62
2021/03/03 04:42:50;;;;;;;128.20;43.90;;;;;;;;;;4954636;29;20452;-63
2021/03/03 04:45:17;;;;;;;170.47;47.60;;;;;;;;;;4955539;29;20823;-63
2021/03/03 04:47:43;;;;;;;165.90;48.70;;;;;;;;;;4955651;28;20562;-62
2021/03/03 04:50:10;;;;;;;170.70;44.73;;;;;;;;;;4955799;29;20452;-65
2021/03/03 04:52:37;;;;;;;180.30;51.97;;;;;;;;;;4954671;29;20452;-65
2021/03/03 04:55:04;;;;;;;174.60;47.03;;;;;;;;;;4955981;28;20492;-64
2021/03/03 04:57:31;;;;;;;195.93;48.57;;;;;;;;;;4954708;28;20507;-66
2021/03/03 04:59:58;;;;;;;153.67;52.03;;;;;;;;;;4955509;28;20453;-65
2021/03/03 05:02:25;;;;;;;173.00;47.47;;;;;;;;;;4953989;28;20967;-65
2021/03/03 05:04:51;;;;;;;175.60;52.27;;;;;;;;;;4955164;29;20484;-64
2021/03/03 05:07:18;;;;;;;237.27;62.37;;;;;;;;;;4953518;28;20452;-65
2021/03/03 05:09:45;;;;;;;174.23;63.03;;;;;;;;;;4955616;29;20452;-65
2021/03/03 05:12:12;;;;;;;167.10;50.33;;;;;;;;;;4955902;28;20807;-65
2021/03/03 05:14:38;;;;;;;201.10;57.33;;;;;;;;;;4954770;29;20468;-65
2021/03/03 05:17:06;;;;;;;344.57;79.93;;;;;;;;;;4954447;29;20448;-65
2021/03/03 05:19:32;;;;;;;255.30;68.33;;;;;;;;;;4969322;28;20452;-65
2021/03/03 05:21:59;;;;;;;311.73;82.63;;;;;;;;;;4963888;28;20457;-65
2021/03/03 05:24:26;;;;;;;124.77;67.13;;;;;;;;;;4954896;29;21250;-65
2021/03/03 05:26:52;;;;;;;140.50;59.57;;;;;;;;;;4953986;29;20451;-65
2021/03/03 05:29:19;;;;;;;148.97;67.23;;;;;;;;;;4954983;29;20488;-65
2021/03/03 05:31:45;;;;;;;203.73;65.13;;;;;;;;;;4954429;29;20452;-66
2021/03/03 05:34:13;;;;;;;199.40;68.40;;;;;;;;;;4954453;29;21018;-64
2021/03/03 05:36:39;;;;;;;256.17;79.17;;;;;;;;;;4954046;28;20458;-65
2021/03/03 05:39:06;;;;;;;136.93;63.93;;;;;;;;;;4954805;29;20455;-65
2021/03/03 05:41:33;;;;;;;192.83;65.33;;;;;;;;;;4953952;28;20507;-65
2021/03/03 05:44:00;;;;;;;256.17;70.37;;;;;;;;;;4954512;29;20484;-65
2021/03/03 05:46:27;;;;;;;201.53;67.13;;;;;;;;;;4953688;29;20460;-64
2021/03/03 05:48:55;;;;;;;140.33;63.10;;;;;;;;;;4954386;29;20852;-64
2021/03/03 05:51:23;;;;;;;171.07;57.10;;;;;;;;;;4953753;29;20805;-65
2021/03/03 05:53:50;;;;;;;265.20;65.03;;;;;;;;;;4953969;28;20480;-65
2021/03/03 05:56:17;;;;;;;217.33;69.37;;;;;;;;;;4953322;29;20460;-65
2021/03/03 05:58:43;;;;;;;263.90;68.60;;;;;;;;;;4954153;29;20470;-65
2021/03/03 06:01:10;;;;;;;256.03;74.13;;;;;;;;;;4953911;29;20463;-65
2021/03/03 06:03:38;;;;;;;146.57;68.80;;;;;;;;;;4954155;29;20492;-65
2021/03/03 06:06:05;;;;;;;245.97;68.30;;;;;;;;;;4953513;29;20456;-66
2021/03/03 06:08:32;;;;;;;132.83;69.87;;;;;;;;;;4954246;28;20484;-65
2021/03/03 06:11:00;;;;;;;118.57;62.70;;;;;;;;;;4957122;28;20447;-65
2021/03/03 06:13:27;;;;;;;187.33;76.17;;;;;;;;;;4973565;28;20495;-65
2021/03/03 06:15:54;;;;;;;125.43;62.73;;;;;;;;;;4959217;28;20508;-66
2021/03/03 06:18:22;;;;;;;129.03;66.60;;;;;;;;;;4953515;28;20466;-65
2021/03/03 06:20:49;;;;;;;137.07;65.73;;;;;;;;;;4953288;28;20448;-65
2021/03/03 06:23:17;;;;;;;182.70;61.97;;;;;;;;;;4953982;29;20468;-65
2021/03/03 06:25:46;;;;;;;120.70;58.10;;;;;;;;;;4953257;29;20468;-65
2021/03/03 06:28:12;;;;;;;317.27;84.20;;;;;;;;;;4957398;28;20488;-65
2021/03/03 06:30:39;;;;;;;110.03;64.53;;;;;;;;;;4956933;28;20463;-65
2021/03/03 06:33:06;;;;;;;125.73;60.80;;;;;;;;;;4953594;29;20471;-68
2021/03/03 06:35:34;;;;;;;165.83;65.80;;;;;;;;;;4953048;29;20462;-64
2021/03/03 06:38:01;;;;;;;115.47;63.13;;;;;;;;;;4954094;29;20475;-65
2021/03/03 06:40:28;;;;;;;141.27;55.43;;;;;;;;;;4952932;29;20504;-64
2021/03/03 06:42:55;;;;;;;208.40;68.30;;;;;;;;;;4953279;29;20457;-64
2021/03/03 06:45:29;;;;;;;174.70;64.93;;;;;;;;;;4954717;28;20974;-64
2021/03/03 06:47:56;;;;;;;203.27;70.40;;;;;;;;;;4967956;28;20853;-66
2021/03/03 06:50:31;;;;;;;140.77;63.93;;;;;;;;;;4953222;28;20457;-64
2021/03/03 06:52:58;;;;;;;20.70;14.47;;;;;;;;;;4953187;29;21062;-70
2021/03/03 06:55:24;;;;;;;29.80;15.53;;;;;;;;;;4954501;28;20468;-69
2021/03/03 06:57:51;;;;;;;18.07;14.73;;;;;;;;;;4953041;28;21015;-68
2021/03/03 07:00:40;;;;;;;15.70;13.30;;;;;;;;;;4964513;28;20463;-66
2021/03/03 07:05:46;;;;;;;12.20;11.00;;;;;;;;;;5000474;23;20589;-62
2021/03/03 07:08:13;;;;;;;12.03;9.20;;;;;;;;;;4990465;28;20490;-61
2021/03/03 07:10:39;;;;;;;10.20;9.20;;;;;;;;;;4988021;28;20460;-61
2021/03/03 07:13:06;;;;;;;10.33;9.43;;;;;;;;;;4972650;28;20563;-62
2021/03/03 07:15:34;;;;;;;8.63;7.93;;;;;;;;;;4984976;28;20470;-60
2021/03/03 07:18:00;;;;;;;8.93;8.23;;;;;;;;;;4992261;28;20450;-58
2021/03/03 07:20:27;;;;;;;9.70;8.90;;;;;;;;;;4991023;28;20463;-59
2021/03/03 07:22:56;;;;;;;10.93;10.03;;;;;;;;;;4992191;28;20454;-59
2021/03/03 07:25:23;;;;;;;9.10;7.80;;;;;;;;;;4991021;28;20569;-59
2021/03/03 07:27:50;;;;;;;8.10;7.40;;;;;;;;;;4987252;28;20950;-59
2021/03/03 07:30:18;;;;;;;7.43;6.73;;;;;;;;;;4992220;28;20517;-59
2021/03/03 07:32:46;;;;;;;8.47;6.80;;;;;;;;;;4994986;28;20958;-60
2021/03/03 07:35:13;;;;;;;7.80;7.10;;;;;;;;;;4995539;28;20868;-59
2021/03/03 07:37:40;;;;;;;7.10;6.40;;;;;;;;;;4995062;28;20818;-58
2021/03/03 07:40:08;;;;;;;8.07;7.30;;;;;;;;;;4995700;28;20941;-60
2021/03/03 07:42:35;;;;;;;6.77;6.17;;;;;;;;;;4993809;28;20609;-58
2021/03/03 07:45:04;;;;;;;8.23;6.93;;;;;;;;;;4997899;28;20469;-58
2021/03/03 07:47:32;;;;;;;7.60;6.90;;;;;;;;;;4999829;28;20466;-58
2021/03/03 07:50:00;;;;;;;8.47;7.57;;;;;;;;;;4999911;28;20492;-57
2021/03/03 07:52:27;;;;;;;7.50;6.80;;;;;;;;;;4995730;28;20504;-58
2021/03/03 07:54:53;;;;;;;7.90;7.20;;;;;;;;;;4995913;28;20470;-58
2021/03/03 07:57:20;;;;;;;9.33;8.37;;;;;;;;;;4995028;28;20454;-59
2021/03/03 07:59:47;;;;;;;10.83;8.27;;;;;;;;;;4996060;28;20470;-58
2021/03/03 08:02:14;;;;;;;16.13;14.67;;;;;;;;;;4994704;28;20442;-58
2021/03/03 08:04:41;;;;;;;32.10;28.70;;;;;;;;;;4993800;28;20478;-60
2021/03/03 08:07:18;;;;;;;36.27;29.50;;;;;;;;;;4994331;28;20458;-60
2021/03/03 08:10:03;;;;;;;30.67;27.10;;;;;;;;;;4998850;28;20487;-60
2021/03/03 08:12:30;;;;;;;29.87;26.87;;;;;;;;;;4993877;28;20447;-60
2021/03/03 08:14:57;;;;;;;28.10;25.40;;;;;;;;;;5011793;28;20465;-60
2021/03/03 08:17:26;;;;;;;27.50;24.80;;;;;;;;;;4992996;28;20447;-60
2021/03/03 08:19:55;;;;;;;28.27;25.50;;;;;;;;;;4995903;28;20843;-61
2021/03/03 08:22:43;;;;;;;27.10;24.50;;;;;;;;;;5003515;28;20477;-61
2021/03/03 08:25:10;;;;;;;22.90;21.00;;;;;;;;;;4995564;28;20520;-61
2021/03/03 08:27:37;;;;;;;19.10;17.10;;;;;;;;;;4994143;28;20446;-60
2021/03/03 08:30:10;;;;;;;20.63;18.67;;;;;;;;;;5011751;28;20902;-61
2021/03/03 08:32:37;;;;;;;17.63;15.80;;;;;;;;;;5000823;28;20454;-62
2021/03/03 08:35:04;;;;;;;23.00;20.70;;;;;;;;;;5008850;28;20484;-62
2021/03/03 08:37:33;;;;;;;22.83;20.67;;;;;;;;;;5002308;28;20534;-61
2021/03/03 08:40:00;;;;;;;22.37;20.37;;;;;;;;;;4994495;28;20494;-61
2021/03/03 08:42:28;;;;;;;22.03;20.13;;;;;;;;;;4993225;28;20450;-61
2021/03/03 08:45:06;;;;;;;22.70;20.40;;;;;;;;;;4994108;28;20482;-62
2021/03/03 08:47:45;;;;;;;23.00;20.40;;;;;;;;;;4993123;28;20454;-62
2021/03/03 08:50:42;;;;;;;21.93;20.03;;;;;;;;;;4993958;28;20493;-62
2021/03/03 08:53:19;;;;;;;23.10;20.90;;;;;;;;;;5002518;28;20458;-62
2021/03/03 08:55:46;;;;;;;21.20;19.30;;;;;;;;;;4993770;28;20462;-61
2021/03/03 08:58:31;;;;;;;21.00;19.00;;;;;;;;;;4998671;28;20503;-61
2021/03/03 09:00:58;;;;;;;22.20;20.17;;;;;;;;;;5000197;28;20446;-61
2021/03/03 09:03:25;;;;;;;21.00;18.80;;;;;;;;;;4993786;28;20529;-62
2021/03/03 09:05:51;;;;;;;20.27;18.57;;;;;;;;;;4992687;28;20836;-62
2021/03/03 09:08:22;;;;;;;20.80;19.03;;;;;;;;;;4994010;28;20513;-61
2021/03/03 09:10:49;;;;;;;20.87;18.97;;;;;;;;;;4994570;28;20466;-62
2021/03/03 09:13:22;;;;;;;19.77;17.70;;;;;;;;;;4994762;28;20463;-62
2021/03/03 09:16:05;;;;;;;18.90;17.30;;;;;;;;;;5002495;28;20454;-62
2021/03/03 09:18:31;;;;;;;20.70;18.90;;;;;;;;;;4993834;28;20450;-62
2021/03/03 09:21:05;;;;;;;21.47;19.40;;;;;;;;;;4992955;28;20455;-63
2021/03/03 09:23:32;;;;;;;18.10;16.50;;;;;;;;;;4992602;28;20454;-63
2021/03/03 09:25:59;;;;;;;11.90;9.73;;;;;;;;;;4992135;28;20970;-61
2021/03/03 09:28:41;;;;;;;15.20;13.53;;;;;;;;;;4991333;28;20483;-61
2021/03/03 09:31:08;;;;;;;9.53;8.17;;;;;;;;;;4992992;28;20450;-62
2021/03/03 09:33:35;;;;;;;7.73;5.40;;;;;;;;;;4993243;28;20797;-61
2021/03/03 09:36:01;;;;;;;15.37;13.67;;;;;;;;;;4992549;28;20968;-61
2021/03/03 09:38:30;;;;;;;14.57;13.07;;;;;;;;;;4993469;28;21058;-61
2021/03/03 09:41:09;;;;;;;16.03;14.60;;;;;;;;;;4998797;28;20461;-61
2021/03/03 09:43:35;;;;;;;13.20;11.90;;;;;;;;;;4998469;28;20442;-60
2021/03/03 09:46:02;;;;;;;19.13;7.17;;;;;;;;;;4992912;28;20453;-59
2021/03/03 09:48:29;;;;;;;16.20;11.53;;;;;;;;;;4992757;28;20494;-61
2021/03/03 09:50:58;;;;;;;11.60;6.40;;;;;;;;;;4992812;28;20450;-63
2021/03/03 09:53:24;;;;;;;11.13;10.03;;;;;;;;;;4992429;28;20934;-62
2021/03/03 09:55:51;;;;;;;15.17;13.70;;;;;;;;;;5004791;28;20799;-62
2021/03/03 09:58:18;;;;;;;11.20;6.47;;;;;;;;;;5013290;28;20450;-63
2021/03/03 10:00:45;;;;;;;11.43;5.57;;;;;;;;;;5013176;28;20507;-63
2021/03/03 10:03:13;;;;;;;11.93;5.70;;;;;;;;;;5011092;28;20461;-63
2021/03/03 10:05:39;;;;;;;12.07;10.87;;;;;;;;;;4994003;28;20482;-62
2021/03/03 10:08:07;;;;;;;12.93;11.83;;;;;;;;;;4992322;28;20483;-62
2021/03/03 10:10:35;;;;;;;7.70;7.00;;;;;;;;;;4993156;28;20458;-61
2021/03/03 10:13:02;;;;;;;15.90;10.60;;;;;;;;;;4993263;28;20500;-60
2021/03/03 10:15:32;;;;;;;15.60;14.00;;;;;;;;;;4992582;28;20767;-61
2021/03/03 10:17:59;;;;;;;6.60;6.00;;;;;;;;;;4994593;28;20865;-61
2021/03/03 10:20:31;;;;;;;11.30;10.10;;;;;;;;;;4996133;28;20457;-60
2021/03/03 10:22:58;;;;;;;7.63;6.20;;;;;;;;;;4992380;28;20447;-60
2021/03/03 10:25:29;;;;;;;7.20;5.60;;;;;;;;;;4992316;28;20482;-60
2021/03/03 10:28:01;;;;;;;7.13;6.40;;;;;;;;;;4990751;28;20446;-60
2021/03/03 10:30:30;;;;;;;6.10;5.50;;;;;;;;;;5004776;28;20501;-60
2021/03/03 10:32:58;;;;;;;8.37;7.53;;;;;;;;;;5012574;28;20460;-60
2021/03/03 10:35:25;;;;;;;9.40;7.60;;;;;;;;;;4994112;28;21032;-61
2021/03/03 10:37:52;;;;;;;16.43;14.83;;;;;;;;;;5001955;28;20944;-61
2021/03/03 10:40:20;;;;;;;15.30;13.80;;;;;;;;;;4994391;28;20457;-61
2021/03/03 10:42:47;;;;;;;7.73;5.80;;;;;;;;;;4989768;28;20486;-61
2021/03/03 10:45:18;;;;;;;8.80;6.60;;;;;;;;;;4988408;28;21022;-60
2021/03/03 10:47:48;;;;;;;8.87;8.03;;;;;;;;;;4989806;28;20458;-60
2021/03/03 10:50:16;;;;;;;6.70;5.90;;;;;;;;;;4990107;28;20566;-61
2021/03/03 10:52:53;;;;;;;17.90;16.23;;;;;;;;;;4992547;28;20455;-61
2021/03/03 10:55:20;;;;;;;17.73;14.90;;;;;;;;;;4992317;28;20478;-61
2021/03/03 10:57:59;;;;;;;6.70;6.10;;;;;;;;;;4974651;28;20459;-61
2021/03/03 11:00:26;;;;;;;16.40;15.00;;;;;;;;;;4995413;28;20460;-60
2021/03/03 11:02:58;;;;;;;13.43;12.13;;;;;;;;;;4988779;28;20459;-61
2021/03/03 11:05:26;;;;;;;10.17;7.67;;;;;;;;;;4994689;28;20556;-61
2021/03/03 11:07:53;;;;;;;18.87;17.03;;;;;;;;;;4996623;28;20454;-61
2021/03/03 11:10:21;;;;;;;21.00;17.27;;;;;;;;;;4996708;28;20481;-60
2021/03/03 11:12:48;;;;;;;20.83;17.87;;;;;;;;;;4996506;28;20472;-60
2021/03/03 11:15:15;;;;;;;21.80;17.40;;;;;;;;;;4995971;28;21001;-61
2021/03/03 11:17:41;;;;;;;17.70;15.40;;;;;;;;;;4995193;28;20454;-61
2021/03/03 11:20:08;;;;;;;20.47;16.27;;;;;;;;;;4996003;28;20501;-61
2021/03/03 11:22:36;;;;;;;19.37;17.43;;;;;;;;;;4996230;28;20864;-61
2021/03/03 11:25:03;;;;;;;19.70;17.80;;;;;;;;;;4996079;28;21013;-60
2021/03/03 11:27:31;;;;;;;20.47;17.10;;;;;;;;;;4995831;28;20454;-60
2021/03/03 11:29:58;;;;;;;19.47;17.30;;;;;;;;;;5013937;28;20481;-61
2021/03/03 11:32:24;;;;;;;20.80;17.10;;;;;;;;;;4997941;28;20875;-61
2021/03/03 11:34:51;;;;;;;22.10;16.60;;;;;;;;;;4995926;28;20486;-60
2021/03/03 11:37:18;;;;;;;20.90;18.87;;;;;;;;;;4999899;28;20461;-61
2021/03/03 11:39:45;;;;;;;20.50;17.07;;;;;;;;;;5004093;28;20470;-61
2021/03/03 11:42:12;;;;;;;19.57;17.60;;;;;;;;;;5002786;28;20525;-61
2021/03/03 11:44:38;;;;;;;20.50;18.40;;;;;;;;;;5004384;28;20489;-60
2021/03/03 11:47:05;;;;;;;20.47;18.20;;;;;;;;;;5003175;28;20455;-61
2021/03/03 11:49:32;;;;;;;23.13;16.97;;;;;;;;;;5000219;28;20486;-60
2021/03/03 11:51:58;;;;;;;21.97;17.63;;;;;;;;;;4997667;28;20455;-61
2021/03/03 11:54:25;;;;;;;8.60;7.70;;;;;;;;;;4997095;28;20469;-61
2021/03/03 11:56:52;;;;;;;19.60;17.70;;;;;;;;;;4994383;28;20461;-60
2021/03/03 11:59:19;;;;;;;20.90;18.80;;;;;;;;;;4991887;28;20462;-60
2021/03/03 12:01:48;;;;;;;21.70;19.57;;;;;;;;;;4988080;28;20848;-60
2021/03/03 12:04:14;;;;;;;23.80;19.13;;;;;;;;;;4994933;28;20574;-60
2021/03/03 12:06:41;;;;;;;21.90;19.50;;;;;;;;;;4993227;28;20474;-60
2021/03/03 12:09:07;;;;;;;21.03;18.50;;;;;;;;;;4995333;28;20496;-60
2021/03/03 12:11:34;;;;;;;22.93;20.07;;;;;;;;;;4994112;28;20866;-60
2021/03/03 12:14:02;;;;;;;23.33;18.80;;;;;;;;;;4993452;28;20547;-60
2021/03/03 12:16:28;;;;;;;21.77;19.27;;;;;;;;;;4993097;28;20454;-59
2021/03/03 12:18:55;;;;;;;21.10;18.97;;;;;;;;;;4992082;28;20959;-59
2021/03/03 12:21:21;;;;;;;26.93;19.13;;;;;;;;;;4992973;28;20467;-59
2021/03/03 12:23:48;;;;;;;22.50;20.30;;;;;;;;;;4994911;28;20544;-60
2021/03/03 12:26:15;;;;;;;22.13;19.77;;;;;;;;;;4995322;28;20458;-60
2021/03/03 12:28:41;;;;;;;23.77;20.77;;;;;;;;;;5002802;28;20481;-59
2021/03/03 12:31:11;;;;;;;24.40;19.00;;;;;;;;;;4998897;28;20508;-59
2021/03/03 12:33:38;;;;;;;21.83;18.83;;;;;;;;;;4997829;28;20454;-62
2021/03/03 12:36:05;;;;;;;21.90;19.60;;;;;;;;;;4995472;28;20454;-60
2021/03/03 12:38:31;;;;;;;21.90;19.70;;;;;;;;;;4989425;28;20517;-60
2021/03/03 12:40:58;;;;;;;20.27;18.40;;;;;;;;;;4999467;28;20953;-60
2021/03/03 12:43:24;;;;;;;21.70;19.13;;;;;;;;;;5003972;28;20463;-60
2021/03/03 12:45:51;;;;;;;21.43;19.20;;;;;;;;;;4999345;28;20820;-60
2021/03/03 12:48:18;;;;;;;21.10;19.00;;;;;;;;;;4998530;28;20946;-60
2021/03/03 12:50:45;;;;;;;21.10;19.00;;;;;;;;;;4998056;28;20446;-60
2021/03/03 12:53:12;;;;;;;21.20;18.90;;;;;;;;;;5008035;28;20457;-61
2021/03/03 12:55:39;;;;;;;23.43;20.33;;;;;;;;;;5021480;28;20473;-59
2021/03/03 12:58:06;;;;;;;23.20;19.60;;;;;;;;;;5021844;28;20450;-61
2021/03/03 13:00:32;;;;;;;24.43;21.17;;;;;;;;;;5020596;28;20452;-61
2021/03/03 13:02:59;;;;;;;23.53;20.70;;;;;;;;;;5019468;28;20462;-61
2021/03/03 13:05:26;;;;;;;23.73;20.90;;;;;;;;;;5004351;23;20505;-65
2021/03/03 13:07:53;;;;;;;24.23;21.93;;;;;;;;;;4963919;28;20453;-65
2021/03/03 13:10:19;;;;;;;23.40;20.77;;;;;;;;;;4955320;29;21021;-63
2021/03/03 13:12:46;;;;;;;25.93;21.70;;;;;;;;;;4955059;28;21039;-65
2021/03/03 13:15:13;;;;;;;24.60;21.70;;;;;;;;;;4966021;28;20479;-65
2021/03/03 13:17:40;;;;;;;23.00;20.63;;;;;;;;;;4955186;29;20460;-65
2021/03/03 13:20:07;;;;;;;23.10;20.90;;;;;;;;;;4954888;29;20448;-64
2021/03/03 13:22:34;;;;;;;22.17;19.90;;;;;;;;;;4955318;29;20499;-65
2021/03/03 13:25:01;;;;;;;22.57;20.33;;;;;;;;;;4955805;28;20483;-64
2021/03/03 13:27:27;;;;;;;24.13;21.00;;;;;;;;;;4953828;28;20494;-65
2021/03/03 13:29:54;;;;;;;24.20;20.77;;;;;;;;;;4954959;29;20823;-65
2021/03/03 13:32:21;;;;;;;24.10;21.50;;;;;;;;;;4954913;29;20460;-64
2021/03/03 13:34:47;;;;;;;23.33;20.80;;;;;;;;;;4962888;28;20475;-65
2021/03/03 13:37:14;;;;;;;23.57;21.03;;;;;;;;;;4973803;28;20451;-66
2021/03/03 13:39:41;;;;;;;23.23;20.57;;;;;;;;;;4974159;28;20506;-65
2021/03/03 13:42:08;;;;;;;23.77;21.03;;;;;;;;;;4973801;28;20451;-65
2021/03/03 13:44:35;;;;;;;22.33;20.03;;;;;;;;;;4972468;28;20475;-64
2021/03/03 13:47:01;;;;;;;25.57;22.43;;;;;;;;;;4973660;28;20502;-65
2021/03/03 13:49:28;;;;;;;23.80;21.33;;;;;;;;;;4973957;28;20495;-64
2021/03/03 13:51:55;;;;;;;26.60;22.87;;;;;;;;;;4973692;28;20998;-64
2021/03/03 13:54:22;;;;;;;23.50;21.00;;;;;;;;;;4973973;28;20476;-64
2021/03/03 13:56:49;;;;;;;28.30;22.20;;;;;;;;;;4953987;28;20975;-65
2021/03/03 13:59:16;;;;;;;25.20;22.60;;;;;;;;;;4954521;29;20448;-64
2021/03/03 14:01:42;;;;;;;25.13;22.50;;;;;;;;;;4954355;29;20448;-65
2021/03/03 14:04:09;;;;;;;24.30;21.80;;;;;;;;;;4953616;29;20456;-64
2021/03/03 14:06:35;;;;;;;24.43;21.83;;;;;;;;;;4967526;28;20460;-64
2021/03/03 14:09:02;;;;;;;24.33;21.83;;;;;;;;;;4973371;28;20487;-65
2021/03/03 14:11:29;;;;;;;25.37;22.90;;;;;;;;;;4973280;28;20819;-64
2021/03/03 14:13:56;;;;;;;23.87;21.43;;;;;;;;;;4973388;28;20455;-64
2021/03/03 14:16:23;;;;;;;25.20;22.23;;;;;;;;;;4968101;28;20809;-65
2021/03/03 14:18:49;;;;;;;26.17;23.47;;;;;;;;;;4954254;28;20456;-65
2021/03/03 14:21:18;;;;;;;25.73;23.33;;;;;;;;;;4953802;29;20452;-64
2021/03/03 14:23:45;;;;;;;29.50;23.40;;;;;;;;;;4954194;29;20799;-65